<?xml version="1.0" encoding="UTF-8"?>
<gpx creator="Wikiloc - https://www.wikiloc.com" version="1.1" xmlns="http://www.topografix.com/GPX/1/1" xmlns:xsi="http://www.w3.org/2001/XMLSchema-instance" xsi:schemaLocation="http://www.topografix.com/GPX/1/1 http://www.topografix.com/GPX/1/1/gpx.xsd">
  <metadata>
    <name>Wikiloc - ROBLES MUNAIN</name>
    <link href="https://www.wikiloc.com/hiking-trails/robles-munain-276026761">
      <text>ROBLES MUNAIN - Wikiloc on Wikiloc</text>
    </link>
    <time>2026-07-04T10:15:29Z</time>
  </metadata>
  <wpt lat="42.842786" lon="-2.349149">
    <ele>634.0</ele>
    <time>2026-07-04T06:26:37Z</time>
    <name>VALLA</name>
    <cmt></cmt>
    <desc></desc>
  </wpt>
  <wpt lat="42.836819" lon="-2.342211">
    <ele>701.1</ele>
    <time>2026-07-04T06:40:09Z</time>
    <name>PUERTA</name>
    <cmt></cmt>
    <desc></desc>
  </wpt>
  <wpt lat="42.829793" lon="-2.328279">
    <ele>928.5</ele>
    <time>2026-07-04T07:30:39Z</time>
    <name>PUENTE</name>
    <cmt></cmt>
    <desc></desc>
  </wpt>
  <wpt lat="42.826691" lon="-2.324699">
    <ele>958.6</ele>
    <time>2026-07-04T07:39:23Z</time>
    <name>ZADORRA</name>
    <cmt></cmt>
    <desc></desc>
  </wpt>
  <wpt lat="42.825298" lon="-2.324435">
    <ele>1020.8</ele>
    <time>2026-07-04T07:45:48Z</time>
    <name>CUEVA</name>
    <cmt></cmt>
    <desc></desc>
  </wpt>
  <wpt lat="42.827548" lon="-2.321390">
    <ele>1065.0</ele>
    <time>2026-07-04T08:06:22Z</time>
    <name>PENA ROJA - TXUMARREGI</name>
    <cmt></cmt>
    <desc></desc>
  </wpt>
  <wpt lat="42.824530" lon="-2.325295">
    <ele>1042.0</ele>
    <time>2026-07-04T08:27:17Z</time>
    <name>BORDA</name>
    <cmt></cmt>
    <desc></desc>
  </wpt>
  <wpt lat="42.824523" lon="-2.326341">
    <ele>1038.0</ele>
    <time>2026-07-04T08:29:04Z</time>
    <name>MUNAIN</name>
    <cmt></cmt>
    <desc></desc>
  </wpt>
  <wpt lat="42.822261" lon="-2.327079">
    <ele>1016.9</ele>
    <time>2026-07-04T08:36:13Z</time>
    <name>XABALITA</name>
    <cmt></cmt>
    <desc></desc>
  </wpt>
  <wpt lat="42.816629" lon="-2.332669">
    <ele>1019.2</ele>
    <time>2026-07-04T08:48:45Z</time>
    <name>LANGA</name>
    <cmt></cmt>
    <desc></desc>
  </wpt>
  <wpt lat="42.816034" lon="-2.332451">
    <ele>1016.4</ele>
    <time>2026-07-04T08:51:04Z</time>
    <name>CARRETERA</name>
    <cmt></cmt>
    <desc></desc>
  </wpt>
  <wpt lat="42.819880" lon="-2.332148">
    <ele>969.2</ele>
    <time>2026-07-04T08:57:30Z</time>
    <name>SALIR DE LA CARETARA</name>
    <cmt></cmt>
    <desc></desc>
  </wpt>
  <wpt lat="42.829428" lon="-2.342596">
    <ele>801.7</ele>
    <time>2026-07-04T09:29:32Z</time>
    <name>DERE</name>
    <cmt></cmt>
    <desc></desc>
  </wpt>
  <trk>
    <name>ROBLES MUNAIN - Wikiloc</name>
    <cmt>Ruta circular desde Munain pasando por: 
- Robles centenarios (2.2 km) 
- Nacedero del Zadorra (4.2 km) 
- Peña Roja (4.8 km) 
- Punta del Puerto de Munain (5.5 km) 
- Xabalita (5.8 km) 
- Mirador de Opakua (6.7 km)</cmt>
    <desc>Ruta circular desde Munain pasando por: 
- Robles centenarios (2.2 km) 
- Nacedero del Zadorra (4.2 km) 
- Peña Roja (4.8 km) 
- Punta del Puerto de Munain (5.5 km) 
- Xabalita (5.8 km) 
- Mirador de Opakua (6.7 km)</desc>
    <trkseg>
      <trkpt lat="42.844045" lon="-2.351434">
        <ele>626.473</ele>
        <time>2026-07-04T06:22:50Z</time>
      </trkpt>
      <trkpt lat="42.843636" lon="-2.351069">
        <ele>628.985</ele>
        <time>2026-07-04T06:24:23Z</time>
      </trkpt>
      <trkpt lat="42.843341" lon="-2.350555">
        <ele>630.013</ele>
        <time>2026-07-04T06:25:06Z</time>
      </trkpt>
      <trkpt lat="42.842615" lon="-2.348488">
        <ele>635.909</ele>
        <time>2026-07-04T06:27:30Z</time>
      </trkpt>
      <trkpt lat="42.842236" lon="-2.347928">
        <ele>639.929</ele>
        <time>2026-07-04T06:28:19Z</time>
      </trkpt>
      <trkpt lat="42.841038" lon="-2.347230">
        <ele>659.934</ele>
        <time>2026-07-04T06:30:42Z</time>
      </trkpt>
      <trkpt lat="42.839707" lon="-2.346828">
        <ele>665.823</ele>
        <time>2026-07-04T06:32:41Z</time>
      </trkpt>
      <trkpt lat="42.838992" lon="-2.345708">
        <ele>674.537</ele>
        <time>2026-07-04T06:34:27Z</time>
      </trkpt>
      <trkpt lat="42.838506" lon="-2.345267">
        <ele>677.949</ele>
        <time>2026-07-04T06:35:20Z</time>
      </trkpt>
      <trkpt lat="42.837110" lon="-2.343013">
        <ele>696.883</ele>
        <time>2026-07-04T06:38:57Z</time>
      </trkpt>
      <trkpt lat="42.836650" lon="-2.341553">
        <ele>705.344</ele>
        <time>2026-07-04T06:41:07Z</time>
      </trkpt>
      <trkpt lat="42.836083" lon="-2.340693">
        <ele>707.413</ele>
        <time>2026-07-04T06:42:29Z</time>
      </trkpt>
      <trkpt lat="42.835892" lon="-2.339725">
        <ele>716.878</ele>
        <time>2026-07-04T06:44:07Z</time>
      </trkpt>
      <trkpt lat="42.835601" lon="-2.339502">
        <ele>719.698</ele>
        <time>2026-07-04T06:44:54Z</time>
      </trkpt>
      <trkpt lat="42.835081" lon="-2.337806">
        <ele>733.515</ele>
        <time>2026-07-04T06:47:17Z</time>
      </trkpt>
      <trkpt lat="42.835114" lon="-2.337573">
        <ele>736.826</ele>
        <time>2026-07-04T06:47:38Z</time>
      </trkpt>
      <trkpt lat="42.835497" lon="-2.337977">
        <ele>740.309</ele>
        <time>2026-07-04T06:48:23Z</time>
      </trkpt>
      <trkpt lat="42.835678" lon="-2.338000">
        <ele>742.811</ele>
        <time>2026-07-04T06:48:43Z</time>
      </trkpt>
      <trkpt lat="42.835825" lon="-2.337782">
        <ele>745.946</ele>
        <time>2026-07-04T06:49:31Z</time>
      </trkpt>
      <trkpt lat="42.836034" lon="-2.338135">
        <ele>744.445</ele>
        <time>2026-07-04T06:51:29Z</time>
      </trkpt>
      <trkpt lat="42.836142" lon="-2.338228">
        <ele>744.339</ele>
        <time>2026-07-04T06:51:46Z</time>
      </trkpt>
      <trkpt lat="42.836242" lon="-2.338159">
        <ele>744.261</ele>
        <time>2026-07-04T06:52:13Z</time>
      </trkpt>
      <trkpt lat="42.836402" lon="-2.338604">
        <ele>742.025</ele>
        <time>2026-07-04T06:53:14Z</time>
      </trkpt>
      <trkpt lat="42.836355" lon="-2.339172">
        <ele>736.556</ele>
        <time>2026-07-04T06:54:48Z</time>
      </trkpt>
      <trkpt lat="42.836466" lon="-2.339203">
        <ele>737.315</ele>
        <time>2026-07-04T06:55:02Z</time>
      </trkpt>
      <trkpt lat="42.836577" lon="-2.338760">
        <ele>740.920</ele>
        <time>2026-07-04T06:56:22Z</time>
      </trkpt>
      <trkpt lat="42.836458" lon="-2.338321">
        <ele>743.361</ele>
        <time>2026-07-04T06:57:47Z</time>
      </trkpt>
      <trkpt lat="42.836293" lon="-2.338133">
        <ele>744.121</ele>
        <time>2026-07-04T06:58:59Z</time>
      </trkpt>
      <trkpt lat="42.836093" lon="-2.338134">
        <ele>744.613</ele>
        <time>2026-07-04T06:59:57Z</time>
      </trkpt>
      <trkpt lat="42.835782" lon="-2.337699">
        <ele>746.009</ele>
        <time>2026-07-04T07:01:08Z</time>
      </trkpt>
      <trkpt lat="42.835448" lon="-2.336937">
        <ele>750.938</ele>
        <time>2026-07-04T07:02:26Z</time>
      </trkpt>
      <trkpt lat="42.835227" lon="-2.335759">
        <ele>763.093</ele>
        <time>2026-07-04T07:04:09Z</time>
      </trkpt>
      <trkpt lat="42.833469" lon="-2.334332">
        <ele>805.592</ele>
        <time>2026-07-04T07:08:54Z</time>
      </trkpt>
      <trkpt lat="42.833572" lon="-2.334202">
        <ele>807.446</ele>
        <time>2026-07-04T07:09:15Z</time>
      </trkpt>
      <trkpt lat="42.833745" lon="-2.334321">
        <ele>805.158</ele>
        <time>2026-07-04T07:09:33Z</time>
      </trkpt>
      <trkpt lat="42.834135" lon="-2.334120">
        <ele>809.562</ele>
        <time>2026-07-04T07:10:15Z</time>
      </trkpt>
      <trkpt lat="42.833634" lon="-2.333374">
        <ele>828.983</ele>
        <time>2026-07-04T07:12:31Z</time>
      </trkpt>
      <trkpt lat="42.833816" lon="-2.332876">
        <ele>835.312</ele>
        <time>2026-07-04T07:13:20Z</time>
      </trkpt>
      <trkpt lat="42.833731" lon="-2.331985">
        <ele>847.377</ele>
        <time>2026-07-04T07:14:54Z</time>
      </trkpt>
      <trkpt lat="42.832768" lon="-2.331844">
        <ele>863.258</ele>
        <time>2026-07-04T07:17:57Z</time>
      </trkpt>
      <trkpt lat="42.832987" lon="-2.331587">
        <ele>864.752</ele>
        <time>2026-07-04T07:18:38Z</time>
      </trkpt>
      <trkpt lat="42.833006" lon="-2.331384">
        <ele>867.617</ele>
        <time>2026-07-04T07:18:57Z</time>
      </trkpt>
      <trkpt lat="42.832556" lon="-2.331049">
        <ele>879.209</ele>
        <time>2026-07-04T07:20:23Z</time>
      </trkpt>
      <trkpt lat="42.831828" lon="-2.331354">
        <ele>886.797</ele>
        <time>2026-07-04T07:22:20Z</time>
      </trkpt>
      <trkpt lat="42.831749" lon="-2.330783">
        <ele>895.022</ele>
        <time>2026-07-04T07:23:23Z</time>
      </trkpt>
      <trkpt lat="42.832045" lon="-2.329918">
        <ele>901.331</ele>
        <time>2026-07-04T07:24:43Z</time>
      </trkpt>
      <trkpt lat="42.831904" lon="-2.329503">
        <ele>903.745</ele>
        <time>2026-07-04T07:25:19Z</time>
      </trkpt>
      <trkpt lat="42.831124" lon="-2.329522">
        <ele>916.637</ele>
        <time>2026-07-04T07:26:58Z</time>
      </trkpt>
      <trkpt lat="42.830617" lon="-2.329253">
        <ele>919.521</ele>
        <time>2026-07-04T07:28:02Z</time>
      </trkpt>
      <trkpt lat="42.830250" lon="-2.328459">
        <ele>924.852</ele>
        <time>2026-07-04T07:29:14Z</time>
      </trkpt>
      <trkpt lat="42.829864" lon="-2.328443">
        <ele>928.041</ele>
        <time>2026-07-04T07:29:56Z</time>
      </trkpt>
      <trkpt lat="42.829802" lon="-2.328273">
        <ele>928.456</ele>
        <time>2026-07-04T07:30:09Z</time>
      </trkpt>
      <trkpt lat="42.829410" lon="-2.328165">
        <ele>930.824</ele>
        <time>2026-07-04T07:31:19Z</time>
      </trkpt>
      <trkpt lat="42.829038" lon="-2.327707">
        <ele>935.404</ele>
        <time>2026-07-04T07:32:06Z</time>
      </trkpt>
      <trkpt lat="42.828427" lon="-2.327432">
        <ele>937.614</ele>
        <time>2026-07-04T07:33:02Z</time>
      </trkpt>
      <trkpt lat="42.827943" lon="-2.326935">
        <ele>941.109</ele>
        <time>2026-07-04T07:33:54Z</time>
      </trkpt>
      <trkpt lat="42.827527" lon="-2.326869">
        <ele>943.734</ele>
        <time>2026-07-04T07:34:42Z</time>
      </trkpt>
      <trkpt lat="42.827211" lon="-2.326540">
        <ele>947.539</ele>
        <time>2026-07-04T07:35:26Z</time>
      </trkpt>
      <trkpt lat="42.826803" lon="-2.326387">
        <ele>949.548</ele>
        <time>2026-07-04T07:36:32Z</time>
      </trkpt>
      <trkpt lat="42.826867" lon="-2.325473">
        <ele>954.982</ele>
        <time>2026-07-04T07:37:39Z</time>
      </trkpt>
      <trkpt lat="42.826669" lon="-2.324546">
        <ele>962.424</ele>
        <time>2026-07-04T07:40:07Z</time>
      </trkpt>
      <trkpt lat="42.826406" lon="-2.324579">
        <ele>967.248</ele>
        <time>2026-07-04T07:40:52Z</time>
      </trkpt>
      <trkpt lat="42.826182" lon="-2.324854">
        <ele>967.619</ele>
        <time>2026-07-04T07:41:41Z</time>
      </trkpt>
      <trkpt lat="42.825949" lon="-2.324849">
        <ele>974.418</ele>
        <time>2026-07-04T07:42:06Z</time>
      </trkpt>
      <trkpt lat="42.825791" lon="-2.324753">
        <ele>981.833</ele>
        <time>2026-07-04T07:42:32Z</time>
      </trkpt>
      <trkpt lat="42.825747" lon="-2.324362">
        <ele>994.349</ele>
        <time>2026-07-04T07:43:33Z</time>
      </trkpt>
      <trkpt lat="42.825480" lon="-2.324599">
        <ele>1005.002</ele>
        <time>2026-07-04T07:44:47Z</time>
      </trkpt>
      <trkpt lat="42.825230" lon="-2.324481">
        <ele>1023.922</ele>
        <time>2026-07-04T07:48:08Z</time>
      </trkpt>
      <trkpt lat="42.825345" lon="-2.324574">
        <ele>1015.909</ele>
        <time>2026-07-04T07:53:58Z</time>
      </trkpt>
      <trkpt lat="42.825432" lon="-2.324175">
        <ele>1018.356</ele>
        <time>2026-07-04T07:56:30Z</time>
      </trkpt>
      <trkpt lat="42.825308" lon="-2.323909">
        <ele>1029.771</ele>
        <time>2026-07-04T07:57:28Z</time>
      </trkpt>
      <trkpt lat="42.826163" lon="-2.322677">
        <ele>1039.510</ele>
        <time>2026-07-04T07:59:41Z</time>
      </trkpt>
      <trkpt lat="42.826727" lon="-2.322533">
        <ele>1039.394</ele>
        <time>2026-07-04T08:01:28Z</time>
      </trkpt>
      <trkpt lat="42.826980" lon="-2.322201">
        <ele>1052.316</ele>
        <time>2026-07-04T08:02:12Z</time>
      </trkpt>
      <trkpt lat="42.827288" lon="-2.322055">
        <ele>1054.080</ele>
        <time>2026-07-04T08:02:50Z</time>
      </trkpt>
      <trkpt lat="42.827626" lon="-2.322064">
        <ele>1054.341</ele>
        <time>2026-07-04T08:03:25Z</time>
      </trkpt>
      <trkpt lat="42.827699" lon="-2.321869">
        <ele>1062.490</ele>
        <time>2026-07-04T08:03:49Z</time>
      </trkpt>
      <trkpt lat="42.827757" lon="-2.322000">
        <ele>1058.465</ele>
        <time>2026-07-04T08:04:58Z</time>
      </trkpt>
      <trkpt lat="42.827767" lon="-2.321682">
        <ele>1062.149</ele>
        <time>2026-07-04T08:05:30Z</time>
      </trkpt>
      <trkpt lat="42.827563" lon="-2.321381">
        <ele>1064.602</ele>
        <time>2026-07-04T08:06:35Z</time>
      </trkpt>
      <trkpt lat="42.827130" lon="-2.321258">
        <ele>1062.022</ele>
        <time>2026-07-04T08:07:50Z</time>
      </trkpt>
      <trkpt lat="42.826610" lon="-2.321393">
        <ele>1055.009</ele>
        <time>2026-07-04T08:08:43Z</time>
      </trkpt>
      <trkpt lat="42.826462" lon="-2.321851">
        <ele>1050.686</ele>
        <time>2026-07-04T08:20:26Z</time>
      </trkpt>
      <trkpt lat="42.826547" lon="-2.322193">
        <ele>1049.021</ele>
        <time>2026-07-04T08:20:59Z</time>
      </trkpt>
      <trkpt lat="42.826453" lon="-2.322565">
        <ele>1042.190</ele>
        <time>2026-07-04T08:21:36Z</time>
      </trkpt>
      <trkpt lat="42.825384" lon="-2.323683">
        <ele>1029.844</ele>
        <time>2026-07-04T08:24:31Z</time>
      </trkpt>
      <trkpt lat="42.825083" lon="-2.324320">
        <ele>1031.286</ele>
        <time>2026-07-04T08:25:21Z</time>
      </trkpt>
      <trkpt lat="42.824587" lon="-2.324983">
        <ele>1040.960</ele>
        <time>2026-07-04T08:26:44Z</time>
      </trkpt>
      <trkpt lat="42.824546" lon="-2.326428">
        <ele>1032.711</ele>
        <time>2026-07-04T08:30:40Z</time>
      </trkpt>
      <trkpt lat="42.824571" lon="-2.326316">
        <ele>1036.520</ele>
        <time>2026-07-04T08:30:56Z</time>
      </trkpt>
      <trkpt lat="42.823504" lon="-2.326411">
        <ele>1030.965</ele>
        <time>2026-07-04T08:33:01Z</time>
      </trkpt>
      <trkpt lat="42.822922" lon="-2.326259">
        <ele>1025.016</ele>
        <time>2026-07-04T08:33:58Z</time>
      </trkpt>
      <trkpt lat="42.822624" lon="-2.326409">
        <ele>1021.976</ele>
        <time>2026-07-04T08:34:24Z</time>
      </trkpt>
      <trkpt lat="42.822261" lon="-2.327082">
        <ele>1016.913</ele>
        <time>2026-07-04T08:36:29Z</time>
      </trkpt>
      <trkpt lat="42.821001" lon="-2.326765">
        <ele>1014.309</ele>
        <time>2026-07-04T08:38:29Z</time>
      </trkpt>
      <trkpt lat="42.819638" lon="-2.330009">
        <ele>1023.273</ele>
        <time>2026-07-04T08:42:52Z</time>
      </trkpt>
      <trkpt lat="42.818315" lon="-2.330680">
        <ele>1022.388</ele>
        <time>2026-07-04T08:45:32Z</time>
      </trkpt>
      <trkpt lat="42.818058" lon="-2.331301">
        <ele>1021.287</ele>
        <time>2026-07-04T08:46:14Z</time>
      </trkpt>
      <trkpt lat="42.817767" lon="-2.331497">
        <ele>1024.321</ele>
        <time>2026-07-04T08:46:42Z</time>
      </trkpt>
      <trkpt lat="42.816951" lon="-2.332533">
        <ele>1017.893</ele>
        <time>2026-07-04T08:48:17Z</time>
      </trkpt>
      <trkpt lat="42.816573" lon="-2.332684">
        <ele>1019.467</ele>
        <time>2026-07-04T08:49:10Z</time>
      </trkpt>
      <trkpt lat="42.816705" lon="-2.333239">
        <ele>1011.438</ele>
        <time>2026-07-04T08:49:52Z</time>
      </trkpt>
      <trkpt lat="42.816574" lon="-2.333269">
        <ele>1012.887</ele>
        <time>2026-07-04T08:50:01Z</time>
      </trkpt>
      <trkpt lat="42.816316" lon="-2.333066">
        <ele>1014.872</ele>
        <time>2026-07-04T08:50:24Z</time>
      </trkpt>
      <trkpt lat="42.816066" lon="-2.332374">
        <ele>1017.087</ele>
        <time>2026-07-04T08:51:29Z</time>
      </trkpt>
      <trkpt lat="42.816022" lon="-2.332803">
        <ele>1014.142</ele>
        <time>2026-07-04T08:51:53Z</time>
      </trkpt>
      <trkpt lat="42.816239" lon="-2.333476">
        <ele>1008.126</ele>
        <time>2026-07-04T08:52:28Z</time>
      </trkpt>
      <trkpt lat="42.816635" lon="-2.333673">
        <ele>1002.809</ele>
        <time>2026-07-04T08:52:59Z</time>
      </trkpt>
      <trkpt lat="42.817990" lon="-2.332341">
        <ele>992.140</ele>
        <time>2026-07-04T08:55:04Z</time>
      </trkpt>
      <trkpt lat="42.819181" lon="-2.332099">
        <ele>976.115</ele>
        <time>2026-07-04T08:56:31Z</time>
      </trkpt>
      <trkpt lat="42.820438" lon="-2.332092">
        <ele>960.984</ele>
        <time>2026-07-04T08:59:33Z</time>
      </trkpt>
      <trkpt lat="42.820786" lon="-2.332198">
        <ele>949.618</ele>
        <time>2026-07-04T09:00:33Z</time>
      </trkpt>
      <trkpt lat="42.820977" lon="-2.331704">
        <ele>948.790</ele>
        <time>2026-07-04T09:01:08Z</time>
      </trkpt>
      <trkpt lat="42.821126" lon="-2.331835">
        <ele>945.254</ele>
        <time>2026-07-04T09:02:10Z</time>
      </trkpt>
      <trkpt lat="42.821408" lon="-2.331119">
        <ele>946.935</ele>
        <time>2026-07-04T09:02:56Z</time>
      </trkpt>
      <trkpt lat="42.821600" lon="-2.330921">
        <ele>947.744</ele>
        <time>2026-07-04T09:03:16Z</time>
      </trkpt>
      <trkpt lat="42.821470" lon="-2.330349">
        <ele>950.029</ele>
        <time>2026-07-04T09:03:58Z</time>
      </trkpt>
      <trkpt lat="42.821733" lon="-2.329670">
        <ele>951.983</ele>
        <time>2026-07-04T09:04:41Z</time>
      </trkpt>
      <trkpt lat="42.822280" lon="-2.329516">
        <ele>947.525</ele>
        <time>2026-07-04T09:05:26Z</time>
      </trkpt>
      <trkpt lat="42.823015" lon="-2.329652">
        <ele>939.417</ele>
        <time>2026-07-04T09:06:25Z</time>
      </trkpt>
      <trkpt lat="42.823416" lon="-2.330029">
        <ele>936.709</ele>
        <time>2026-07-04T09:07:03Z</time>
      </trkpt>
      <trkpt lat="42.823776" lon="-2.331233">
        <ele>929.670</ele>
        <time>2026-07-04T09:08:46Z</time>
      </trkpt>
      <trkpt lat="42.823665" lon="-2.331809">
        <ele>924.185</ele>
        <time>2026-07-04T09:09:41Z</time>
      </trkpt>
      <trkpt lat="42.823345" lon="-2.332524">
        <ele>916.734</ele>
        <time>2026-07-04T09:10:36Z</time>
      </trkpt>
      <trkpt lat="42.823274" lon="-2.333395">
        <ele>911.038</ele>
        <time>2026-07-04T09:11:35Z</time>
      </trkpt>
      <trkpt lat="42.823392" lon="-2.334378">
        <ele>900.970</ele>
        <time>2026-07-04T09:12:42Z</time>
      </trkpt>
      <trkpt lat="42.823764" lon="-2.335385">
        <ele>885.774</ele>
        <time>2026-07-04T09:13:53Z</time>
      </trkpt>
      <trkpt lat="42.824138" lon="-2.336003">
        <ele>880.095</ele>
        <time>2026-07-04T09:14:46Z</time>
      </trkpt>
      <trkpt lat="42.825236" lon="-2.336537">
        <ele>870.274</ele>
        <time>2026-07-04T09:16:58Z</time>
      </trkpt>
      <trkpt lat="42.825802" lon="-2.336549">
        <ele>866.339</ele>
        <time>2026-07-04T09:17:43Z</time>
      </trkpt>
      <trkpt lat="42.826222" lon="-2.336779">
        <ele>864.053</ele>
        <time>2026-07-04T09:18:20Z</time>
      </trkpt>
      <trkpt lat="42.826877" lon="-2.337703">
        <ele>854.604</ele>
        <time>2026-07-04T09:19:39Z</time>
      </trkpt>
      <trkpt lat="42.827531" lon="-2.337833">
        <ele>850.114</ele>
        <time>2026-07-04T09:20:30Z</time>
      </trkpt>
      <trkpt lat="42.828030" lon="-2.338495">
        <ele>845.309</ele>
        <time>2026-07-04T09:21:21Z</time>
      </trkpt>
      <trkpt lat="42.828331" lon="-2.338481">
        <ele>843.987</ele>
        <time>2026-07-04T09:21:42Z</time>
      </trkpt>
      <trkpt lat="42.828430" lon="-2.338754">
        <ele>840.322</ele>
        <time>2026-07-04T09:22:31Z</time>
      </trkpt>
      <trkpt lat="42.828634" lon="-2.338847">
        <ele>837.931</ele>
        <time>2026-07-04T09:23:22Z</time>
      </trkpt>
      <trkpt lat="42.828445" lon="-2.338764">
        <ele>840.015</ele>
        <time>2026-07-04T09:23:50Z</time>
      </trkpt>
      <trkpt lat="42.828310" lon="-2.339275">
        <ele>834.657</ele>
        <time>2026-07-04T09:24:25Z</time>
      </trkpt>
      <trkpt lat="42.828218" lon="-2.340497">
        <ele>824.851</ele>
        <time>2026-07-04T09:25:52Z</time>
      </trkpt>
      <trkpt lat="42.828585" lon="-2.341538">
        <ele>814.432</ele>
        <time>2026-07-04T09:27:41Z</time>
      </trkpt>
      <trkpt lat="42.829390" lon="-2.342622">
        <ele>801.811</ele>
        <time>2026-07-04T09:29:13Z</time>
      </trkpt>
      <trkpt lat="42.829956" lon="-2.340494">
        <ele>809.686</ele>
        <time>2026-07-04T09:32:54Z</time>
      </trkpt>
      <trkpt lat="42.829940" lon="-2.339675">
        <ele>811.254</ele>
        <time>2026-07-04T09:33:45Z</time>
      </trkpt>
      <trkpt lat="42.830121" lon="-2.338936">
        <ele>812.556</ele>
        <time>2026-07-04T09:35:00Z</time>
      </trkpt>
      <trkpt lat="42.830198" lon="-2.337569">
        <ele>826.411</ele>
        <time>2026-07-04T09:36:48Z</time>
      </trkpt>
      <trkpt lat="42.830636" lon="-2.337970">
        <ele>823.309</ele>
        <time>2026-07-04T09:37:35Z</time>
      </trkpt>
      <trkpt lat="42.830785" lon="-2.337851">
        <ele>823.637</ele>
        <time>2026-07-04T09:37:48Z</time>
      </trkpt>
      <trkpt lat="42.830907" lon="-2.337916">
        <ele>823.422</ele>
        <time>2026-07-04T09:37:58Z</time>
      </trkpt>
      <trkpt lat="42.831456" lon="-2.338694">
        <ele>812.891</ele>
        <time>2026-07-04T09:39:06Z</time>
      </trkpt>
      <trkpt lat="42.831821" lon="-2.338730">
        <ele>807.485</ele>
        <time>2026-07-04T09:39:37Z</time>
      </trkpt>
      <trkpt lat="42.832215" lon="-2.338460">
        <ele>804.397</ele>
        <time>2026-07-04T09:40:18Z</time>
      </trkpt>
      <trkpt lat="42.832334" lon="-2.338590">
        <ele>800.331</ele>
        <time>2026-07-04T09:40:43Z</time>
      </trkpt>
      <trkpt lat="42.832362" lon="-2.339350">
        <ele>789.332</ele>
        <time>2026-07-04T09:41:36Z</time>
      </trkpt>
      <trkpt lat="42.832520" lon="-2.339554">
        <ele>785.811</ele>
        <time>2026-07-04T09:41:56Z</time>
      </trkpt>
      <trkpt lat="42.833002" lon="-2.339382">
        <ele>777.636</ele>
        <time>2026-07-04T09:43:02Z</time>
      </trkpt>
      <trkpt lat="42.833332" lon="-2.339570">
        <ele>770.288</ele>
        <time>2026-07-04T09:44:34Z</time>
      </trkpt>
      <trkpt lat="42.833432" lon="-2.339049">
        <ele>776.524</ele>
        <time>2026-07-04T09:45:43Z</time>
      </trkpt>
      <trkpt lat="42.833167" lon="-2.338676">
        <ele>786.526</ele>
        <time>2026-07-04T09:46:35Z</time>
      </trkpt>
      <trkpt lat="42.833326" lon="-2.337715">
        <ele>790.009</ele>
        <time>2026-07-04T09:47:53Z</time>
      </trkpt>
      <trkpt lat="42.833244" lon="-2.336442">
        <ele>781.650</ele>
        <time>2026-07-04T09:49:09Z</time>
      </trkpt>
      <trkpt lat="42.833311" lon="-2.336360">
        <ele>779.145</ele>
        <time>2026-07-04T09:49:22Z</time>
      </trkpt>
      <trkpt lat="42.833625" lon="-2.336484">
        <ele>770.234</ele>
        <time>2026-07-04T09:50:12Z</time>
      </trkpt>
      <trkpt lat="42.834022" lon="-2.336263">
        <ele>760.058</ele>
        <time>2026-07-04T09:51:49Z</time>
      </trkpt>
      <trkpt lat="42.834166" lon="-2.336459">
        <ele>755.590</ele>
        <time>2026-07-04T09:52:09Z</time>
      </trkpt>
      <trkpt lat="42.834573" lon="-2.336608">
        <ele>748.114</ele>
        <time>2026-07-04T09:52:50Z</time>
      </trkpt>
      <trkpt lat="42.834844" lon="-2.336307">
        <ele>749.945</ele>
        <time>2026-07-04T09:53:38Z</time>
      </trkpt>
      <trkpt lat="42.835069" lon="-2.336333">
        <ele>751.044</ele>
        <time>2026-07-04T09:53:58Z</time>
      </trkpt>
      <trkpt lat="42.835770" lon="-2.337554">
        <ele>746.589</ele>
        <time>2026-07-04T09:55:33Z</time>
      </trkpt>
      <trkpt lat="42.835622" lon="-2.337998">
        <ele>742.344</ele>
        <time>2026-07-04T09:56:01Z</time>
      </trkpt>
      <trkpt lat="42.835086" lon="-2.337721">
        <ele>734.505</ele>
        <time>2026-07-04T09:57:04Z</time>
      </trkpt>
      <trkpt lat="42.835540" lon="-2.339385">
        <ele>720.815</ele>
        <time>2026-07-04T09:58:49Z</time>
      </trkpt>
      <trkpt lat="42.835867" lon="-2.339761">
        <ele>715.909</ele>
        <time>2026-07-04T09:59:28Z</time>
      </trkpt>
      <trkpt lat="42.836161" lon="-2.340868">
        <ele>706.636</ele>
        <time>2026-07-04T10:00:37Z</time>
      </trkpt>
      <trkpt lat="42.836593" lon="-2.341437">
        <ele>706.081</ele>
        <time>2026-07-04T10:01:43Z</time>
      </trkpt>
      <trkpt lat="42.836995" lon="-2.342686">
        <ele>699.680</ele>
        <time>2026-07-04T10:03:02Z</time>
      </trkpt>
      <trkpt lat="42.838044" lon="-2.344505">
        <ele>681.834</ele>
        <time>2026-07-04T10:05:10Z</time>
      </trkpt>
      <trkpt lat="42.839763" lon="-2.346866">
        <ele>665.526</ele>
        <time>2026-07-04T10:08:09Z</time>
      </trkpt>
      <trkpt lat="42.840954" lon="-2.347195">
        <ele>660.420</ele>
        <time>2026-07-04T10:09:45Z</time>
      </trkpt>
      <trkpt lat="42.841595" lon="-2.347646">
        <ele>651.681</ele>
        <time>2026-07-04T10:10:41Z</time>
      </trkpt>
      <trkpt lat="42.842208" lon="-2.347882">
        <ele>640.410</ele>
        <time>2026-07-04T10:11:33Z</time>
      </trkpt>
      <trkpt lat="42.842644" lon="-2.348460">
        <ele>636.025</ele>
        <time>2026-07-04T10:12:16Z</time>
      </trkpt>
      <trkpt lat="42.842770" lon="-2.349084">
        <ele>634.042</ele>
        <time>2026-07-04T10:12:51Z</time>
      </trkpt>
      <trkpt lat="42.843353" lon="-2.350575">
        <ele>630.122</ele>
        <time>2026-07-04T10:14:21Z</time>
      </trkpt>
      <trkpt lat="42.843969" lon="-2.351376">
        <ele>626.814</ele>
        <time>2026-07-04T10:15:29Z</time>
      </trkpt>
    </trkseg>
  </trk></gpx>